Time;durP1;ratioP1;P1;durP2;ratioP2;P2;SDS_P1;SDS_P2;PMS_P1;PMS_P2;Temp;Humidity;BMP_temperature;BMP_pressure;BME280_temperature;BME280_humidity;BME280_pressure;Samples;Min_cycle;Max_cycle;Signal;HPM_P1;HPM_P2
2023/07/30 00:01:40;;;;;;;3.63;2.70;;;19.80;99.90;;;;;;4159639;28;20110;-62
2023/07/30 00:03:41;;;;;;;5.57;2.80;;;19.70;99.90;;;;;;4160179;28;20079;-61
2023/07/30 00:05:42;;;;;;;3.75;2.72;;;19.60;99.90;;;;;;4160445;28;20033;-61
2023/07/30 00:07:43;;;;;;;2.70;2.47;;;19.60;99.90;;;;;;4160660;28;20432;-61
2023/07/30 00:09:44;;;;;;;5.00;2.70;;;19.60;99.90;;;;;;4159273;28;20459;-61
2023/07/30 00:11:45;;;;;;;2.75;2.55;;;19.50;99.90;;;;;;4161013;28;20507;-62
2023/07/30 00:13:47;;;;;;;3.75;3.00;;;19.50;99.90;;;;;;4160480;28;20083;-62
2023/07/30 00:15:48;;;;;;;3.25;2.70;;;19.50;99.90;;;;;;4160888;28;20485;-62
2023/07/30 00:17:49;;;;;;;6.60;2.83;;;19.50;99.90;;;;;;4159551;28;20409;-61
2023/07/30 00:19:50;;;;;;;4.05;2.72;;;19.50;99.90;;;;;;4161400;28;20477;-61
2023/07/30 00:21:51;;;;;;;3.40;2.80;;;19.60;99.90;;;;;;4160469;28;20080;-62
2023/07/30 00:23:52;;;;;;;3.45;3.15;;;19.60;99.90;;;;;;4161660;28;20037;-61
2023/07/30 00:25:54;;;;;;;4.78;3.05;;;19.60;99.90;;;;;;4160178;28;20022;-61
2023/07/30 00:27:55;;;;;;;5.20;2.90;;;19.50;99.90;;;;;;4160236;28;20030;-61
2023/07/30 00:29:56;;;;;;;3.25;2.85;;;19.50;99.90;;;;;;4160626;28;20041;-62
2023/07/30 00:31:57;;;;;;;4.43;2.58;;;19.50;99.90;;;;;;4160021;28;20041;-61
2023/07/30 00:33:58;;;;;;;3.47;3.17;;;19.40;99.90;;;;;;4161124;28;20072;-63
2023/07/30 00:35:59;;;;;;;5.10;3.35;;;19.40;99.90;;;;;;4160278;28;20528;-62
2023/07/30 00:38:00;;;;;;;5.28;3.08;;;19.40;99.90;;;;;;4161107;28;20102;-62
2023/07/30 00:40:03;;;;;;;3.10;2.80;;;19.40;99.90;;;;;;4160077;28;20033;-62
2023/07/30 00:42:04;;;;;;;4.63;3.33;;;19.30;99.90;;;;;;4161011;28;20478;-62
2023/07/30 00:44:05;;;;;;;3.20;2.88;;;19.30;99.90;;;;;;4159558;28;20041;-62
2023/07/30 00:46:06;;;;;;;4.30;3.20;;;19.20;99.90;;;;;;4161275;28;20045;-61
2023/07/30 00:48:08;;;;;;;3.97;2.97;;;19.10;99.90;;;;;;4160044;28;20083;-63
2023/07/30 00:50:12;;;;;;;4.68;3.17;;;18.90;99.90;;;;;;4160334;28;20076;-61
2023/07/30 00:52:18;;;;;;;3.80;3.13;;;18.70;99.90;;;;;;4159826;28;20045;-61
2023/07/30 00:54:19;;;;;;;3.58;3.17;;;18.60;99.90;;;;;;4161211;28;20095;-62
2023/07/30 00:56:20;;;;;;;3.67;3.17;;;18.40;99.90;;;;;;4159789;28;20046;-61
2023/07/30 00:58:23;;;;;;;5.50;3.80;;;18.30;99.90;;;;;;4160956;28;20029;-62
2023/07/30 01:00:26;;;;;;;4.32;3.72;;;18.20;99.90;;;;;;4160518;28;20137;-65
2023/07/30 01:02:28;;;;;;;4.25;3.38;;;18.20;99.90;;;;;;4160286;28;20119;-62
2023/07/30 01:04:30;;;;;;;3.80;3.40;;;18.10;99.90;;;;;;4160196;28;20044;-62
2023/07/30 01:06:31;;;;;;;4.05;3.70;;;18.10;99.90;;;;;;4160064;28;20099;-64
2023/07/30 01:08:33;;;;;;;5.82;3.40;;;18.10;99.90;;;;;;4160714;28;20107;-61
2023/07/30 01:10:36;;;;;;;6.50;3.75;;;18.20;99.90;;;;;;4159682;28;20049;-62
2023/07/30 01:12:38;;;;;;;9.88;3.65;;;18.20;99.90;;;;;;4161032;28;20030;-62
2023/07/30 01:14:40;;;;;;;3.80;3.40;;;18.20;99.90;;;;;;4160117;28;20046;-64
2023/07/30 01:16:41;;;;;;;5.65;3.80;;;18.20;99.90;;;;;;4161093;28;20029;-62
2023/07/30 01:18:42;;;;;;;5.60;3.65;;;18.20;99.90;;;;;;4159836;28;20473;-62
2023/07/30 01:20:44;;;;;;;3.72;3.30;;;18.20;99.90;;;;;;4161078;28;20041;-66
2023/07/30 01:22:45;;;;;;;5.90;4.22;;;18.20;99.90;;;;;;4160372;28;20381;-68
2023/07/30 01:24:47;;;;;;;6.18;3.58;;;18.20;99.90;;;;;;4163848;28;20033;-61
2023/07/30 01:26:58;;;;;;;4.18;3.75;;;18.20;99.90;;;;;;4162732;28;20037;-70
2023/07/30 01:29:03;;;;;;;8.10;4.07;;;18.10;99.90;;;;;;4164286;28;20029;-68
2023/07/30 01:31:06;;;;;;;4.40;3.53;;;18.10;99.90;;;;;;4162626;28;20429;-61
2023/07/30 01:33:09;;;;;;;5.10;3.92;;;18.00;99.90;;;;;;4163978;28;20083;-63
2023/07/30 01:35:13;;;;;;;4.47;3.42;;;18.00;99.90;;;;;;4162675;28;20033;-62
2023/07/30 01:37:16;;;;;;;5.43;3.40;;;17.90;99.90;;;;;;4163272;28;20107;-69
2023/07/30 01:39:17;;;;;;;6.15;3.85;;;18.00;99.90;;;;;;4163072;28;20041;-61
2023/07/30 01:41:19;;;;;;;5.03;4.00;;;18.00;99.90;;;;;;4162861;28;20022;-62
2023/07/30 01:43:20;;;;;;;3.85;3.50;;;18.00;99.90;;;;;;4162637;28;20033;-67
2023/07/30 01:45:21;;;;;;;4.13;3.45;;;18.00;99.90;;;;;;4162659;28;20033;-62
2023/07/30 01:47:22;;;;;;;5.10;3.47;;;18.10;99.90;;;;;;4163370;28;20436;-61
2023/07/30 01:49:23;;;;;;;3.50;3.22;;;18.10;99.90;;;;;;4162184;28;20099;-69
2023/07/30 01:51:24;;;;;;;6.95;3.15;;;18.10;99.90;;;;;;4163038;28;20928;-64
2023/07/30 01:53:26;;;;;;;5.30;3.65;;;18.20;99.90;;;;;;4161365;28;20471;-62
2023/07/30 01:55:27;;;;;;;5.40;3.75;;;18.20;99.90;;;;;;4162781;28;20107;-63
2023/07/30 01:57:28;;;;;;;4.60;4.03;;;18.20;99.90;;;;;;4162344;28;20045;-63
2023/07/30 01:59:29;;;;;;;6.43;3.92;;;18.20;99.90;;;;;;4164036;28;20132;-67
2023/07/30 02:01:30;;;;;;;6.03;4.40;;;18.20;99.90;;;;;;4162185;28;20132;-68
2023/07/30 02:03:31;;;;;;;4.20;3.55;;;18.20;99.90;;;;;;4163461;28;20034;-67
2023/07/30 02:05:32;;;;;;;5.15;3.67;;;18.20;99.90;;;;;;4161376;28;20041;-61
2023/07/30 02:07:34;;;;;;;7.70;4.00;;;18.10;99.90;;;;;;4162670;28;20091;-62
2023/07/30 02:09:35;;;;;;;3.90;3.20;;;18.10;99.90;;;;;;4162168;28;20061;-61
2023/07/30 02:11:36;;;;;;;6.90;4.20;;;18.00;99.90;;;;;;4162670;28;20095;-62
2023/07/30 02:13:37;;;;;;;6.57;3.67;;;18.00;99.90;;;;;;4163000;28;20017;-61
2023/07/30 02:15:42;;;;;;;4.93;3.63;;;17.90;99.90;;;;;;4162960;28;20033;-62
2023/07/30 02:17:43;;;;;;;4.32;3.38;;;17.90;99.90;;;;;;4163097;28;20091;-65
2023/07/30 02:19:44;;;;;;;5.07;3.97;;;17.80;99.90;;;;;;4162006;28;20505;-67
2023/07/30 02:21:45;;;;;;;6.05;4.07;;;17.70;99.90;;;;;;4162838;28;20042;-63
2023/07/30 02:23:46;;;;;;;6.45;3.80;;;17.70;99.90;;;;;;4162114;28;20088;-61
2023/07/30 02:25:47;;;;;;;3.47;3.17;;;17.60;99.90;;;;;;4163038;28;20099;-62
2023/07/30 02:27:49;;;;;;;7.80;3.53;;;17.60;99.90;;;;;;4161879;28;20045;-61
2023/07/30 02:29:50;;;;;;;5.90;3.90;;;17.60;99.90;;;;;;4162780;28;20046;-65
2023/07/30 02:31:51;;;;;;;6.95;4.15;;;17.50;99.90;;;;;;4161715;28;20106;-67
2023/07/30 02:33:52;;;;;;;4.70;3.95;;;17.50;99.90;;;;;;4162858;28;20449;-64
2023/07/30 02:35:53;;;;;;;5.95;4.35;;;17.50;99.90;;;;;;4161203;28;20041;-69
2023/07/30 02:37:54;;;;;;;5.93;3.83;;;17.40;99.90;;;;;;4162829;28;20481;-60
2023/07/30 02:39:55;;;;;;;5.30;4.55;;;17.40;99.90;;;;;;4161863;28;20021;-61
2023/07/30 02:41:56;;;;;;;6.68;4.50;;;17.30;99.90;;;;;;4161849;28;20110;-66
2023/07/30 02:43:57;;;;;;;4.78;4.38;;;17.30;99.90;;;;;;4162220;28;20366;-68
2023/07/30 02:45:58;;;;;;;6.50;4.55;;;17.30;99.90;;;;;;4161738;28;20091;-66
2023/07/30 02:47:59;;;;;;;8.65;4.90;;;17.20;99.90;;;;;;4162568;28;20129;-63
2023/07/30 02:50:01;;;;;;;6.15;4.50;;;17.20;99.90;;;;;;4161158;28;20034;-61
2023/07/30 02:52:03;;;;;;;6.00;5.38;;;17.20;99.90;;;;;;4162489;28;20041;-66
2023/07/30 02:54:06;;;;;;;5.28;4.43;;;17.20;99.90;;;;;;4161231;28;20048;-68
2023/07/30 02:56:07;;;;;;;5.53;4.57;;;17.20;99.90;;;;;;4161484;28;20111;-66
2023/07/30 02:58:09;;;;;;;5.90;5.30;;;17.20;99.90;;;;;;4160182;28;20498;-62
2023/07/30 03:00:10;;;;;;;5.22;4.57;;;17.30;99.90;;;;;;4162644;28;20045;-61
2023/07/30 03:02:12;;;;;;;6.28;4.25;;;17.30;99.90;;;;;;4161487;28;20871;-68
2023/07/30 03:04:13;;;;;;;5.75;4.05;;;17.40;99.90;;;;;;4162594;28;20049;-62
2023/07/30 03:06:16;;;;;;;5.75;4.90;;;17.40;99.90;;;;;;4161259;28;20362;-69
2023/07/30 03:08:17;;;;;;;4.50;4.07;;;17.50;99.90;;;;;;4162225;28;20438;-61
2023/07/30 03:10:18;;;;;;;5.53;4.55;;;17.40;99.90;;;;;;4161190;28;20049;-63
2023/07/30 03:12:19;;;;;;;6.95;5.35;;;17.40;99.90;;;;;;4161853;28;20087;-69
2023/07/30 03:14:21;;;;;;;6.15;5.55;;;17.30;99.90;;;;;;4161998;28;20076;-68
2023/07/30 03:16:22;;;;;;;6.40;5.80;;;17.30;99.90;;;;;;4161531;28;20034;-63
2023/07/30 03:18:23;;;;;;;6.57;5.53;;;17.30;99.90;;;;;;4161770;28;20030;-66
2023/07/30 03:20:24;;;;;;;6.30;5.70;;;17.30;99.90;;;;;;4161202;28;20468;-69
2023/07/30 03:22:25;;;;;;;7.45;5.78;;;17.30;99.90;;;;;;4162104;28;20815;-64
2023/07/30 03:24:26;;;;;;;9.32;6.07;;;17.30;99.90;;;;;;4160997;28;20034;-66
2023/07/30 03:26:27;;;;;;;6.53;5.57;;;17.40;99.90;;;;;;4161741;28;20060;-61
2023/07/30 03:28:29;;;;;;;5.75;5.00;;;17.40;99.90;;;;;;4160401;28;20485;-68
2023/07/30 03:30:30;;;;;;;6.75;5.22;;;17.60;99.90;;;;;;4161768;28;20138;-68
2023/07/30 03:32:32;;;;;;;9.90;6.05;;;17.60;99.90;;;;;;4160822;28;20389;-65
2023/07/30 03:34:33;;;;;;;6.85;5.28;;;17.70;99.90;;;;;;4161799;28;20041;-66
2023/07/30 03:36:34;;;;;;;6.95;4.88;;;17.70;99.90;;;;;;4160907;28;20114;-62
2023/07/30 03:38:35;;;;;;;6.88;6.18;;;17.80;99.90;;;;;;4161699;28;20107;-62
2023/07/30 03:40:37;;;;;;;8.07;5.68;;;17.80;99.90;;;;;;4160576;28;20033;-62
2023/07/30 03:42:38;;;;;;;8.13;5.25;;;17.80;99.90;;;;;;4160803;28;20041;-63
2023/07/30 03:44:39;;;;;;;6.80;5.78;;;17.80;99.90;;;;;;4161488;28;20041;-69
2023/07/30 03:46:40;;;;;;;6.30;5.15;;;17.80;99.90;;;;;;4159945;28;20025;-62
2023/07/30 03:48:41;;;;;;;8.75;5.68;;;17.80;99.90;;;;;;4161324;28;21218;-66
2023/07/30 03:50:42;;;;;;;9.75;5.80;;;17.90;99.90;;;;;;4160074;28;20394;-62
2023/07/30 03:52:43;;;;;;;7.18;5.40;;;17.90;99.90;;;;;;4161807;28;20048;-68
2023/07/30 03:54:44;;;;;;;7.68;5.40;;;17.90;99.90;;;;;;4160540;28;20436;-63
2023/07/30 03:56:45;;;;;;;7.07;6.28;;;17.80;99.90;;;;;;4161165;28;20832;-65
2023/07/30 03:58:46;;;;;;;7.35;6.28;;;17.90;99.90;;;;;;4159138;28;20072;-62
2023/07/30 04:00:48;;;;;;;6.60;5.60;;;17.90;99.90;;;;;;4160566;28;20033;-65
2023/07/30 04:02:49;;;;;;;6.32;5.45;;;17.90;99.90;;;;;;4160132;28;20084;-62
2023/07/30 04:04:50;;;;;;;6.85;5.88;;;17.80;99.90;;;;;;4161626;28;20029;-64
2023/07/30 04:06:51;;;;;;;7.55;5.70;;;17.80;99.90;;;;;;4159025;28;20484;-61
2023/07/30 04:08:52;;;;;;;6.18;5.63;;;17.80;99.90;;;;;;4161312;28;20033;-62
2023/07/30 04:10:53;;;;;;;8.65;6.53;;;17.70;99.90;;;;;;4159870;28;20045;-61
2023/07/30 04:12:54;;;;;;;7.78;6.40;;;17.70;99.90;;;;;;4160968;28;20041;-61
2023/07/30 04:14:55;;;;;;;7.88;6.72;;;17.70;99.90;;;;;;4160500;28;20358;-62
2023/07/30 04:16:57;;;;;;;7.15;6.13;;;17.70;99.90;;;;;;4160519;28;20034;-61
2023/07/30 04:18:58;;;;;;;8.70;6.32;;;17.70;99.90;;;;;;4160870;28;20130;-62
2023/07/30 04:20:59;;;;;;;14.88;7.15;;;17.80;99.90;;;;;;4160092;28;20975;-64
2023/07/30 04:23:00;;;;;;;7.50;5.88;;;17.80;99.90;;;;;;4161340;28;20049;-63
2023/07/30 04:25:02;;;;;;;9.63;6.35;;;17.80;99.90;;;;;;4160318;28;20441;-61
2023/07/30 04:27:03;;;;;;;9.40;5.82;;;17.80;99.90;;;;;;4161445;28;20083;-61
2023/07/30 04:29:05;;;;;;;6.97;5.70;;;17.80;99.90;;;;;;4159243;28;20041;-62
2023/07/30 04:31:06;;;;;;;11.38;5.90;;;17.80;99.90;;;;;;4161564;28;20111;-63
2023/07/30 04:33:07;;;;;;;7.20;5.43;;;17.90;99.90;;;;;;4160129;28;20087;-64
2023/07/30 04:35:08;;;;;;;11.23;5.30;;;17.90;99.90;;;;;;4160825;28;20046;-61
2023/07/30 04:37:09;;;;;;;10.38;6.00;;;17.90;99.90;;;;;;4160182;28;20084;-62
2023/07/30 04:39:12;;;;;;;8.82;6.05;;;18.00;99.90;;;;;;4161156;28;20424;-62
2023/07/30 04:41:13;;;;;;;7.03;5.85;;;17.90;99.90;;;;;;4160105;28;20466;-62
2023/07/30 04:43:15;;;;;;;8.15;5.35;;;18.00;99.90;;;;;;4158887;28;20539;-62
2023/07/30 04:45:16;;;;;;;8.60;5.47;;;18.00;99.90;;;;;;4159498;28;20163;-61
2023/07/30 04:47:17;;;;;;;7.70;5.20;;;17.90;99.90;;;;;;4160057;28;20049;-61
2023/07/30 04:49:18;;;;;;;9.98;5.88;;;18.00;99.90;;;;;;4159885;28;20119;-62
2023/07/30 04:51:19;;;;;;;6.45;4.97;;;18.00;99.90;;;;;;4158695;28;20045;-63
2023/07/30 04:53:20;;;;;;;7.93;5.93;;;18.20;99.90;;;;;;4160873;28;20076;-61
2023/07/30 04:55:22;;;;;;;7.35;5.68;;;18.30;99.90;;;;;;4158137;28;20042;-61
2023/07/30 04:57:23;;;;;;;6.38;5.75;;;18.40;99.90;;;;;;4160207;28;20497;-61
2023/07/30 04:59:24;;;;;;;8.60;6.07;;;18.60;99.90;;;;;;4162236;28;20025;-62
2023/07/30 05:01:25;;;;;;;11.73;5.90;;;18.80;99.90;;;;;;4164240;28;20037;-63
2023/07/30 05:03:26;;;;;;;7.60;5.53;;;19.10;99.90;;;;;;4161651;28;20462;-63
2023/07/30 05:05:27;;;;;;;8.27;6.05;;;19.30;99.90;;;;;;4164005;28;20465;-62
2023/07/30 05:07:28;;;;;;;6.72;5.22;;;19.70;99.90;;;;;;4162882;28;20056;-63
2023/07/30 05:09:29;;;;;;;6.70;5.80;;;20.00;99.90;;;;;;4164310;28;21032;-62
2023/07/30 05:11:31;;;;;;;7.10;5.13;;;20.30;99.90;;;;;;4162203;28;20041;-63
2023/07/30 05:13:32;;;;;;;7.45;5.82;;;20.30;99.90;;;;;;4163969;28;20053;-62
2023/07/30 05:15:33;;;;;;;5.75;5.07;;;20.40;99.90;;;;;;4163328;28;20071;-62
2023/07/30 05:17:34;;;;;;;9.52;4.55;;;20.50;99.90;;;;;;4163265;28;20048;-62
2023/07/30 05:19:35;;;;;;;9.18;5.03;;;20.70;99.90;;;;;;4163466;28;20527;-62
2023/07/30 05:21:37;;;;;;;5.57;4.18;;;21.00;99.90;;;;;;4162598;28;20029;-62
2023/07/30 05:23:38;;;;;;;4.70;3.95;;;21.10;99.90;;;;;;4163545;28;20033;-62
2023/07/30 05:25:39;;;;;;;7.95;3.80;;;21.50;99.90;;;;;;4162210;28;20060;-63
2023/07/30 05:27:40;;;;;;;8.23;4.53;;;21.80;99.90;;;;;;4163777;28;20412;-61
2023/07/30 05:29:41;;;;;;;4.72;4.05;;;22.20;99.90;;;;;;4162498;28;20033;-62
2023/07/30 05:31:42;;;;;;;4.35;3.65;;;22.90;99.90;;;;;;4162092;28;20493;-61
2023/07/30 05:33:43;;;;;;;5.30;3.63;;;23.30;99.90;;;;;;4162038;28;20098;-62
2023/07/30 05:35:45;;;;;;;5.05;3.90;;;23.80;99.90;;;;;;4163135;28;20133;-63
2023/07/30 05:37:46;;;;;;;13.93;4.10;;;23.80;99.90;;;;;;4152180;28;20021;-63
2023/07/30 05:39:47;;;;;;;4.93;3.83;;;24.00;99.90;;;;;;4163167;28;20037;-61
2023/07/30 05:41:48;;;;;;;4.68;4.18;;;24.10;99.90;;;;;;4162188;28;20033;-61
2023/07/30 05:43:50;;;;;;;6.13;3.97;;;24.20;99.90;;;;;;4163656;28;20037;-62
2023/07/30 05:45:51;;;;;;;4.80;4.30;;;23.90;99.90;;;;;;4162754;28;20351;-62
2023/07/30 05:47:52;;;;;;;6.90;5.25;;;23.60;99.90;;;;;;4162902;28;20462;-63
2023/07/30 05:49:53;;;;;;;6.60;4.55;;;23.60;99.90;;;;;;4162765;28;20107;-62
2023/07/30 05:51:54;;;;;;;6.10;4.38;;;23.60;99.90;;;;;;4162264;28;20167;-62
2023/07/30 05:53:55;;;;;;;6.32;4.47;;;23.90;99.90;;;;;;4163208;28;20037;-60
2023/07/30 05:55:56;;;;;;;4.63;4.03;;;24.30;99.90;;;;;;4161606;28;20057;-63
2023/07/30 05:57:58;;;;;;;4.53;3.42;;;24.50;99.90;;;;;;4163010;28;20429;-61
2023/07/30 05:59:59;;;;;;;4.15;3.30;;;24.50;99.90;;;;;;4161646;28;20527;-62
2023/07/30 06:02:03;;;;;;;3.25;2.95;;;24.00;99.90;;;;;;4163301;28;20087;-61
2023/07/30 06:04:04;;;;;;;3.35;2.65;;;24.50;99.90;;;;;;4161983;28;20087;-62
2023/07/30 06:06:05;;;;;;;2.95;2.75;;;24.50;99.90;;;;;;4163035;28;20034;-62
2023/07/30 06:08:07;;;;;;;3.65;2.90;;;24.80;99.90;;;;;;4158535;28;20037;-62
2023/07/30 06:10:08;;;;;;;2.65;2.45;;;25.20;99.90;;;;;;4171525;28;20091;-62
2023/07/30 06:12:09;;;;;;;3.15;2.67;;;24.90;99.90;;;;;;4177300;28;20024;-61
2023/07/30 06:14:10;;;;;;;2.88;2.63;;;24.20;99.90;;;;;;4172556;28;20037;-61
2023/07/30 06:16:12;;;;;;;7.90;3.05;;;23.90;99.90;;;;;;4161406;28;20087;-62
2023/07/30 06:18:13;;;;;;;3.53;2.75;;;23.80;99.90;;;;;;4161087;28;20103;-62
2023/07/30 06:20:15;;;;;;;3.03;2.63;;;23.80;99.90;;;;;;4161446;28;20539;-62
2023/07/30 06:22:16;;;;;;;3.75;3.35;;;23.30;99.90;;;;;;4161321;28;20029;-61
2023/07/30 06:24:17;;;;;;;3.20;2.78;;;23.40;99.90;;;;;;4161822;28;20091;-61
2023/07/30 06:26:18;;;;;;;7.60;3.05;;;23.60;99.90;;;;;;4160991;28;20021;-61
2023/07/30 06:28:19;;;;;;;3.17;2.65;;;23.40;99.90;;;;;;4161881;28;20029;-61
2023/07/30 06:30:20;;;;;;;5.28;3.33;;;23.50;99.90;;;;;;4160933;28;20121;-62
2023/07/30 06:32:22;;;;;;;5.35;2.35;;;23.90;99.90;;;;;;4162145;28;20440;-65
2023/07/30 06:34:23;;;;;;;3.65;3.20;;;24.20;99.90;;;;;;4161142;28;20108;-62
2023/07/30 06:36:24;;;;;;;3.47;2.80;;;24.40;99.90;;;;;;4161953;28;20060;-62
2023/07/30 06:38:25;;;;;;;5.32;2.83;;;24.60;99.90;;;;;;4161072;28;20041;-62
2023/07/30 06:40:27;;;;;;;2.70;2.50;;;24.70;99.90;;;;;;4161577;28;20046;-62
2023/07/30 06:42:28;;;;;;;5.80;2.97;;;24.70;99.90;;;;;;4159224;28;20075;-63
2023/07/30 06:44:29;;;;;;;4.70;3.10;;;24.60;99.90;;;;;;4161767;28;20034;-61
2023/07/30 06:46:30;;;;;;;2.88;2.60;;;24.80;99.90;;;;;;4161045;28;20045;-61
2023/07/30 06:48:31;;;;;;;3.00;2.40;;;24.90;99.90;;;;;;4161038;28;20119;-61
2023/07/30 06:50:32;;;;;;;3.30;3.00;;;25.10;99.90;;;;;;4161153;28;20099;-62
2023/07/30 06:52:34;;;;;;;2.92;2.60;;;25.00;99.90;;;;;;4161408;28;20086;-62
2023/07/30 06:54:35;;;;;;;4.38;2.80;;;25.00;99.90;;;;;;4161352;28;20037;-62
2023/07/30 06:56:36;;;;;;;3.85;2.92;;;25.10;99.90;;;;;;4158689;28;20050;-62
2023/07/30 06:58:37;;;;;;;4.43;2.40;;;25.30;99.90;;;;;;4160186;28;20030;-61
2023/07/30 07:00:38;;;;;;;4.10;2.78;;;25.40;99.90;;;;;;4158956;28;20041;-63
2023/07/30 07:02:40;;;;;;;3.30;2.60;;;25.40;99.90;;;;;;4160177;28;20041;-61
2023/07/30 07:04:41;;;;;;;3.78;2.90;;;25.50;99.90;;;;;;4158938;28;20144;-62
2023/07/30 07:06:42;;;;;;;6.38;2.40;;;25.90;99.90;;;;;;4160394;28;20038;-61
2023/07/30 07:08:43;;;;;;;3.67;2.95;;;26.20;99.90;;;;;;4158956;28;20095;-62
2023/07/30 07:10:44;;;;;;;3.13;2.70;;;26.10;99.90;;;;;;4160545;28;20473;-62
2023/07/30 07:12:45;;;;;;;6.88;2.65;;;26.10;99.90;;;;;;4160897;28;20096;-61
2023/07/30 07:14:47;;;;;;;3.13;2.83;;;26.10;99.90;;;;;;4161639;28;20543;-63
2023/07/30 07:16:48;;;;;;;2.65;2.38;;;26.30;99.90;;;;;;4160869;28;20611;-65
2023/07/30 07:18:49;;;;;;;4.57;2.63;;;26.20;99.90;;;;;;4161240;28;20084;-62
2023/07/30 07:20:50;;;;;;;4.88;2.60;;;26.20;99.90;;;;;;4161233;28;20585;-62
2023/07/30 07:22:52;;;;;;;2.55;2.30;;;26.20;99.90;;;;;;4161090;28;20079;-62
2023/07/30 07:24:53;;;;;;;2.80;2.17;;;26.30;99.90;;;;;;4161026;28;20029;-61
2023/07/30 07:26:54;;;;;;;3.65;2.58;;;26.50;99.90;;;;;;4160180;28;20114;-62
2023/07/30 07:28:56;;;;;;;3.70;2.42;;;26.60;99.90;;;;;;4161507;28;20064;-61
2023/07/30 07:30:57;;;;;;;3.13;2.83;;;26.90;99.90;;;;;;4160042;28;20115;-62
2023/07/30 07:32:58;;;;;;;4.78;2.72;;;27.20;99.90;;;;;;4161279;28;20453;-62
2023/07/30 07:35:00;;;;;;;5.90;3.10;;;27.20;99.90;;;;;;4160424;28;20041;-63
2023/07/30 07:37:02;;;;;;;8.25;2.70;;;27.30;99.90;;;;;;4154489;28;20037;-62
2023/07/30 07:39:03;;;;;;;4.85;3.17;;;27.60;99.90;;;;;;4170257;28;20550;-63
2023/07/30 07:41:05;;;;;;;3.65;2.33;;;27.60;99.90;;;;;;4161949;28;20021;-62
2023/07/30 07:43:09;;;;;;;3.03;2.75;;;27.60;99.90;;;;;;4160411;28;20084;-62
2023/07/30 07:45:10;;;;;;;2.70;2.50;;;28.00;99.90;;;;;;4161126;28;20041;-64
2023/07/30 07:47:11;;;;;;;4.55;2.83;;;28.20;99.90;;;;;;4160136;28;20119;-61
2023/07/30 07:49:13;;;;;;;3.00;2.55;;;28.20;99.90;;;;;;4160824;28;20045;-64
2023/07/30 07:51:14;;;;;;;3.55;2.83;;;28.20;99.90;;;;;;4159248;28;20108;-64
2023/07/30 07:53:15;;;;;;;3.08;2.78;;;28.10;99.90;;;;;;4160170;28;20100;-64
2023/07/30 07:55:17;;;;;;;4.90;3.08;;;28.30;99.90;;;;;;4160568;28;20053;-63
2023/07/30 07:57:18;;;;;;;3.22;2.92;;;28.60;99.90;;;;;;4160266;28;20095;-63
2023/07/30 07:59:19;;;;;;;4.18;2.90;;;28.60;99.90;;;;;;4161280;28;20470;-63
2023/07/30 08:01:20;;;;;;;5.35;2.97;;;28.50;99.90;;;;;;4160150;28;20413;-64
2023/07/30 08:03:22;;;;;;;3.38;2.88;;;28.20;99.90;;;;;;4161146;28;20099;-64
2023/07/30 08:05:24;;;;;;;4.57;3.38;;;28.20;99.90;;;;;;4160025;28;20035;-64
2023/07/30 08:07:25;;;;;;;5.85;2.78;;;28.50;99.90;;;;;;4159761;28;20099;-62
2023/07/30 08:09:26;;;;;;;3.17;2.85;;;28.60;99.90;;;;;;4159575;28;20087;-63
2023/07/30 08:11:27;;;;;;;5.38;2.72;;;28.70;99.90;;;;;;4160831;28;20107;-63
2023/07/30 08:13:28;;;;;;;5.15;3.15;;;28.80;99.90;;;;;;4158300;28;20464;-60
2023/07/30 08:15:30;;;;;;;51.58;27.45;;;28.70;99.90;;;;;;4160720;28;20095;-62
2023/07/30 08:17:31;;;;;;;11.02;7.00;;;28.90;99.90;;;;;;4159767;28;20468;-63
2023/07/30 08:19:32;;;;;;;5.35;3.55;;;29.30;99.90;;;;;;4160807;28;20041;-63
2023/07/30 08:21:33;;;;;;;4.80;2.28;;;29.50;99.90;;;;;;4159268;28;20045;-62
2023/07/30 08:23:34;;;;;;;3.45;2.20;;;29.70;99.90;;;;;;4160531;28;20087;-64
2023/07/30 08:25:35;;;;;;;5.75;2.33;;;29.80;99.90;;;;;;4160303;28;20072;-64
2023/07/30 08:27:36;;;;;;;5.70;2.63;;;29.70;99.60;;;;;;4159734;28;20041;-65
2023/07/30 08:29:37;;;;;;;2.92;2.65;;;29.90;99.60;;;;;;4160884;28;20041;-64
2023/07/30 08:31:38;;;;;;;4.80;2.90;;;29.70;99.50;;;;;;4159830;28;20049;-62
2023/07/30 08:33:40;;;;;;;6.43;2.08;;;29.60;99.50;;;;;;4162829;28;20539;-63
2023/07/30 08:35:41;;;;;;;5.22;4.00;;;29.40;99.50;;;;;;4162922;28;20420;-62
2023/07/30 08:37:42;;;;;;;3.42;2.97;;;29.40;99.50;;;;;;4163979;28;20033;-61
2023/07/30 08:39:43;;;;;;;3.65;2.08;;;29.60;99.30;;;;;;4163003;28;20146;-59
2023/07/30 08:41:45;;;;;;;2.35;2.15;;;29.30;99.30;;;;;;4163304;28;20095;-60
2023/07/30 08:43:48;;;;;;;6.03;2.42;;;29.20;99.40;;;;;;4162887;28;20037;-60
2023/07/30 08:45:49;;;;;;;2.70;2.30;;;29.00;99.50;;;;;;4163787;28;20041;-61
2023/07/30 08:47:52;;;;;;;3.28;2.10;;;28.90;99.60;;;;;;4163005;28;20097;-63
2023/07/30 08:49:53;;;;;;;2.10;1.90;;;28.90;99.50;;;;;;4164173;28;20030;-65
2023/07/30 08:51:55;;;;;;;4.70;2.22;;;29.00;99.30;;;;;;4163408;28;20084;-61
2023/07/30 08:53:58;;;;;;;3.65;2.28;;;29.10;99.10;;;;;;4163269;28;20424;-61
2023/07/30 08:56:00;;;;;;;8.68;3.58;;;29.10;99.00;;;;;;4162801;28;20531;-60
2023/07/30 08:58:04;;;;;;;4.35;2.28;;;29.20;99.40;;;;;;4162642;28;20025;-61
2023/07/30 09:00:11;;;;;;;3.08;1.58;;;29.30;98.80;;;;;;4163269;28;20473;-60
2023/07/30 09:02:22;;;;;;;4.40;1.98;;;29.30;98.30;;;;;;4162417;28;20872;-64
2023/07/30 09:04:23;;;;;;;5.07;1.85;;;29.30;98.30;;;;;;4161191;28;20458;-64
2023/07/30 09:06:24;;;;;;;2.55;2.15;;;29.20;98.50;;;;;;4162277;28;20041;-62
2023/07/30 09:08:26;;;;;;;5.43;3.55;;;29.20;98.50;;;;;;4163080;28;20041;-61
2023/07/30 09:10:27;;;;;;;3.47;2.28;;;29.10;98.50;;;;;;4160790;28;20037;-62
2023/07/30 09:12:32;;;;;;;2.72;2.00;;;29.30;98.60;;;;;;4153023;28;20037;-64
2023/07/30 09:14:33;;;;;;;4.55;1.80;;;29.50;98.40;;;;;;4145852;28;20030;-60
2023/07/30 09:16:34;;;;;;;2.65;1.67;;;29.50;98.10;;;;;;4157828;28;20068;-64
2023/07/30 09:18:40;;;;;;;2.00;1.63;;;29.80;98.10;;;;;;4161611;28;20182;-62
2023/07/30 09:20:42;;;;;;;2.15;1.95;;;30.10;97.60;;;;;;4162939;28;20535;-64
2023/07/30 09:22:48;;;;;;;1.88;1.73;;;30.10;97.40;;;;;;4162519;28;20111;-61
2023/07/30 09:24:49;;;;;;;3.17;1.75;;;30.20;97.40;;;;;;4178137;28;20117;-61
2023/07/30 09:26:50;;;;;;;9.55;2.33;;;30.40;97.30;;;;;;4161425;28;20029;-61
2023/07/30 09:28:52;;;;;;;5.55;2.55;;;30.40;96.80;;;;;;4162472;28;20370;-62
2023/07/30 09:31:03;;;;;;;2.58;1.58;;;30.30;96.70;;;;;;4162156;28;20114;-61
2023/07/30 09:33:04;;;;;;;2.88;1.65;;;30.30;96.20;;;;;;4162056;28;20453;-63
2023/07/30 09:35:09;;;;;;;4.22;1.88;;;29.90;96.90;;;;;;4161896;28;20041;-64
2023/07/30 09:37:10;;;;;;;2.13;1.90;;;29.50;96.90;;;;;;4162561;28;21060;-64
2023/07/30 09:39:23;;;;;;;4.72;2.10;;;29.40;97.20;;;;;;4162492;28;20542;-63
2023/07/30 09:41:25;;;;;;;3.67;1.70;;;29.40;96.70;;;;;;4162311;28;20061;-63
2023/07/30 09:43:33;;;;;;;1.88;1.77;;;29.20;97.10;;;;;;4162641;28;20497;-63
2023/07/30 09:45:35;;;;;;;2.33;1.73;;;29.20;96.90;;;;;;4162186;28;20072;-63
2023/07/30 09:47:37;;;;;;;3.92;1.70;;;29.10;97.30;;;;;;4162641;28;20037;-63
2023/07/30 09:49:39;;;;;;;1.50;1.30;;;29.20;97.10;;;;;;4161606;28;20490;-64
2023/07/30 09:51:40;;;;;;;1.88;1.55;;;29.30;97.00;;;;;;4160890;28;20049;-62
2023/07/30 09:53:42;;;;;;;2.65;1.73;;;29.30;97.10;;;;;;4162222;28;20033;-63
2023/07/30 09:55:43;;;;;;;3.05;1.63;;;29.40;96.90;;;;;;4162734;28;20103;-62
2023/07/30 09:57:45;;;;;;;3.15;1.75;;;29.50;97.00;;;;;;4161726;28;20054;-62
2023/07/30 09:59:46;;;;;;;2.90;1.75;;;29.70;97.00;;;;;;4161918;28;20037;-62
2023/07/30 10:01:53;;;;;;;2.10;1.80;;;29.70;97.10;;;;;;4161595;28;20068;-62
2023/07/30 10:03:57;;;;;;;2.53;1.55;;;29.70;97.10;;;;;;4162800;28;20030;-63
2023/07/30 10:06:07;;;;;;;3.20;1.70;;;29.40;97.00;;;;;;4161472;28;20123;-61
2023/07/30 10:08:14;;;;;;;2.33;2.00;;;29.20;97.20;;;;;;4155053;28;20835;-63
2023/07/30 10:10:15;;;;;;;3.28;2.08;;;28.80;97.90;;;;;;4154015;28;20038;-62
2023/07/30 10:12:21;;;;;;;2.78;1.58;;;28.50;98.20;;;;;;4152532;28;20045;-63
2023/07/30 10:14:24;;;;;;;3.83;1.77;;;28.30;98.50;;;;;;4161081;28;20053;-63
2023/07/30 10:16:27;;;;;;;2.92;1.83;;;28.40;98.70;;;;;;4152257;28;20042;-62
2023/07/30 10:18:58;;;;;;;2.95;1.45;;;28.50;98.60;;;;;;4152189;28;20458;-63
2023/07/30 10:20:59;;;;;;;3.40;1.73;;;28.50;98.90;;;;;;4153320;28;20045;-64
2023/07/30 10:23:01;;;;;;;4.00;1.95;;;28.40;98.90;;;;;;4160326;28;20091;-66
2023/07/30 10:25:07;;;;;;;1.60;1.50;;;28.30;99.00;;;;;;4162215;28;20072;-69
2023/07/30 10:27:12;;;;;;;3.50;2.10;;;28.30;98.90;;;;;;4161004;28;20092;-63
2023/07/30 10:29:20;;;;;;;3.67;2.05;;;28.30;99.00;;;;;;4161982;28;20112;-63
2023/07/30 10:31:38;;;;;;;3.80;1.85;;;28.20;99.10;;;;;;4161485;28;20046;-65
2023/07/30 10:33:50;;;;;;;2.20;2.00;;;28.00;99.80;;;;;;4162187;28;20041;-64